This is the latest recevied weather packets stored in our database for station/object N3WAX-1. If no packets are shown the sender has not sent any weather packets the latest 10 day(s).
| Time | Temp. | Humidity | Pressure | Rain* | Wind** | Luminosity | Snow |
|---|---|---|---|---|---|---|---|
| 1777974195 | 14.44° C | 76% | 1011 hPa | 0 mm | - | 0 W/m² | - |
| 1777971128 | 15° C | 76% | 1010.8 hPa | 0 mm | - | 0 W/m² | - |
| 1777970207 | 15° C | 76% | 1010.7 hPa | 0 mm | - | 0 W/m² | - |
| 1777970185 | 15° C | 76% | 1010.7 hPa | 0 mm | - | 0 W/m² | - |
| 1777967318 | 15.56° C | 75% | 1010.7 hPa | 0 mm | - | 0 W/m² | - |
| 1777966867 | 15.56° C | 75% | 1010.6 hPa | 0 mm | - | 0 W/m² | - |
| 1777966567 | 15.56° C | 75% | 1010.6 hPa | 0 mm | - | 0 W/m² | - |
| 1777964910 | 15° C | 76% | 1010.7 hPa | 0 mm | - | 0 W/m² | - |
| 1777964464 | 15° C | 76% | 1010.8 hPa | 0 mm | - | 0 W/m² | - |
| 1777963852 | 15° C | 77% | 1010.9 hPa | 0 mm | - | 0 W/m² | - |
| 1777963551 | 15° C | 77% | 1010.9 hPa | 0 mm | - | 0 W/m² | - |
| 1777962349 | 15° C | 76% | 1010.9 hPa | 0 mm | - | 0 W/m² | - |
| 1777960549 | 13.89° C | 78% | 1010.9 hPa | 0 mm | - | 0 W/m² | - |
| 1777958745 | 12.78° C | 78% | 1010.8 hPa | 0 mm | - | 0 W/m² | - |
| 1777957241 | 12.78° C | 77% | 1010.9 hPa | 0 mm | - | 0 W/m² | - |
| 1777956041 | 12.78° C | 75% | 1010.9 hPa | 0 mm | - | 0 W/m² | - |
| 1777946028 | 16.11° C | 59% | 1011.1 hPa | 0 mm | - | 0 W/m² | - |
| 1777945723 | 16.11° C | 59% | 1011 hPa | 0 mm | - | 0 W/m² | - |
| 1777945107 | 15.56° C | 59% | 1011 hPa | 0 mm | - | 0 W/m² | - |
| 1777941728 | 17.22° C | 54% | 1010.5 hPa | 0 mm | - | 0 W/m² | - |
| 1777940495 | 17.78° C | 52% | 1010.3 hPa | 0 mm | - | 0 W/m² | - |
| 1777939883 | 18.33° C | 51% | 1010.3 hPa | 0 mm | - | 0 W/m² | - |
| 1777939074 | 18.89° C | 48% | 1010.1 hPa | 0 mm | - | 11 W/m² | - |
| 1777937129 | 20° C | 46% | 1010.2 hPa | 0 mm | - | 28 W/m² | - |
| 1777934723 | 20.56° C | 46% | 1010.3 hPa | 0 mm | - | 125 W/m² | - |
* Rain latest hour (hover to see other rain measurements)
** Current wind speed in m/s (hover to see current wind gust speed)